sensor_id;sensor_type;location;lat;lon;timestamp;P1;durP1;ratioP1;P2;durP2;ratioP2
54935;SDS011;40838;50.676;7.838;2022-09-17T00:00:56;22.83;;;8.55;;
54935;SDS011;40838;50.676;7.838;2022-09-17T00:03:24;15.23;;;8.68;;
54935;SDS011;40838;50.676;7.838;2022-09-17T00:05:57;21.55;;;8.20;;
54935;SDS011;40838;50.676;7.838;2022-09-17T00:08:26;15.68;;;7.40;;
54935;SDS011;40838;50.676;7.838;2022-09-17T00:10:53;20.58;;;8.52;;
54935;SDS011;40838;50.676;7.838;2022-09-17T00:13:20;21.08;;;8.40;;
54935;SDS011;40838;50.676;7.838;2022-09-17T00:15:47;17.70;;;7.95;;
54935;SDS011;40838;50.676;7.838;2022-09-17T00:18:15;14.18;;;8.10;;
54935;SDS011;40838;50.676;7.838;2022-09-17T00:20:43;18.48;;;9.90;;
54935;SDS011;40838;50.676;7.838;2022-09-17T00:23:11;13.30;;;8.50;;
54935;SDS011;40838;50.676;7.838;2022-09-17T00:25:39;14.48;;;8.90;;
54935;SDS011;40838;50.676;7.838;2022-09-17T00:28:06;16.58;;;8.65;;
54935;SDS011;40838;50.676;7.838;2022-09-17T00:30:33;21.50;;;9.70;;
54935;SDS011;40838;50.676;7.838;2022-09-17T00:33:00;18.67;;;9.52;;
54935;SDS011;40838;50.676;7.838;2022-09-17T00:35:27;18.73;;;9.85;;
54935;SDS011;40838;50.676;7.838;2022-09-17T00:37:54;21.65;;;10.13;;
54935;SDS011;40838;50.676;7.838;2022-09-17T00:40:20;14.48;;;9.18;;
54935;SDS011;40838;50.676;7.838;2022-09-17T00:42:49;18.95;;;9.10;;
54935;SDS011;40838;50.676;7.838;2022-09-17T00:45:18;31.77;;;10.75;;
54935;SDS011;40838;50.676;7.838;2022-09-17T00:47:46;20.48;;;10.80;;
54935;SDS011;40838;50.676;7.838;2022-09-17T00:50:16;14.90;;;10.68;;
54935;SDS011;40838;50.676;7.838;2022-09-17T00:52:48;16.10;;;11.32;;
54935;SDS011;40838;50.676;7.838;2022-09-17T00:55:18;17.92;;;10.90;;
54935;SDS011;40838;50.676;7.838;2022-09-17T00:57:53;27.70;;;12.60;;
54935;SDS011;40838;50.676;7.838;2022-09-17T01:00:25;28.63;;;11.70;;
54935;SDS011;40838;50.676;7.838;2022-09-17T01:02:55;22.20;;;11.43;;
54935;SDS011;40838;50.676;7.838;2022-09-17T01:05:28;18.38;;;10.90;;
54935;SDS011;40838;50.676;7.838;2022-09-17T01:08:00;26.77;;;12.52;;
54935;SDS011;40838;50.676;7.838;2022-09-17T01:10:33;25.48;;;12.90;;
54935;SDS011;40838;50.676;7.838;2022-09-17T01:13:08;23.17;;;12.57;;
54935;SDS011;40838;50.676;7.838;2022-09-17T01:15:40;23.83;;;11.77;;
54935;SDS011;40838;50.676;7.838;2022-09-17T01:18:20;32.22;;;13.38;;
54935;SDS011;40838;50.676;7.838;2022-09-17T01:23:50;21.83;;;11.35;;
54935;SDS011;40838;50.676;7.838;2022-09-17T01:29:11;21.80;;;12.88;;
54935;SDS011;40838;50.676;7.838;2022-09-17T01:31:43;30.50;;;12.57;;
54935;SDS011;40838;50.676;7.838;2022-09-17T01:34:15;18.80;;;12.25;;
54935;SDS011;40838;50.676;7.838;2022-09-17T01:36:48;20.90;;;12.35;;
54935;SDS011;40838;50.676;7.838;2022-09-17T01:39:18;23.00;;;13.07;;
54935;SDS011;40838;50.676;7.838;2022-09-17T01:41:50;26.27;;;13.45;;
54935;SDS011;40838;50.676;7.838;2022-09-17T01:44:22;25.27;;;13.73;;
54935;SDS011;40838;50.676;7.838;2022-09-17T01:46:53;20.83;;;13.57;;
54935;SDS011;40838;50.676;7.838;2022-09-17T01:49:22;22.25;;;13.90;;
54935;SDS011;40838;50.676;7.838;2022-09-17T01:51:50;30.60;;;14.45;;
54935;SDS011;40838;50.676;7.838;2022-09-17T01:54:21;29.25;;;15.57;;
54935;SDS011;40838;50.676;7.838;2022-09-17T01:56:50;24.80;;;14.68;;
54935;SDS011;40838;50.676;7.838;2022-09-17T01:59:21;23.95;;;13.75;;
54935;SDS011;40838;50.676;7.838;2022-09-17T02:01:54;25.80;;;13.27;;
54935;SDS011;40838;50.676;7.838;2022-09-17T02:04:24;29.58;;;14.63;;
54935;SDS011;40838;50.676;7.838;2022-09-17T02:06:53;23.08;;;13.98;;
54935;SDS011;40838;50.676;7.838;2022-09-17T02:09:23;25.98;;;14.13;;
54935;SDS011;40838;50.676;7.838;2022-09-17T02:11:55;22.10;;;15.57;;
54935;SDS011;40838;50.676;7.838;2022-09-17T02:14:23;27.40;;;13.80;;
54935;SDS011;40838;50.676;7.838;2022-09-17T02:16:57;22.48;;;14.55;;
54935;SDS011;40838;50.676;7.838;2022-09-17T02:19:27;24.20;;;16.10;;
54935;SDS011;40838;50.676;7.838;2022-09-17T02:21:57;25.95;;;14.60;;
54935;SDS011;40838;50.676;7.838;2022-09-17T02:24:28;25.85;;;16.10;;
54935;SDS011;40838;50.676;7.838;2022-09-17T02:26:59;24.50;;;15.38;;
54935;SDS011;40838;50.676;7.838;2022-09-17T02:29:28;24.67;;;15.60;;
54935;SDS011;40838;50.676;7.838;2022-09-17T02:31:59;28.75;;;15.35;;
54935;SDS011;40838;50.676;7.838;2022-09-17T02:34:26;22.05;;;15.60;;
54935;SDS011;40838;50.676;7.838;2022-09-17T02:36:56;19.98;;;15.40;;
54935;SDS011;40838;50.676;7.838;2022-09-17T02:39:24;23.38;;;16.23;;
54935;SDS011;40838;50.676;7.838;2022-09-17T02:41:55;26.73;;;15.57;;
54935;SDS011;40838;50.676;7.838;2022-09-17T02:44:25;18.73;;;12.48;;
54935;SDS011;40838;50.676;7.838;2022-09-17T02:49:54;18.20;;;14.15;;
54935;SDS011;40838;50.676;7.838;2022-09-17T02:52:27;23.23;;;13.38;;
54935;SDS011;40838;50.676;7.838;2022-09-17T02:54:59;18.02;;;11.57;;
54935;SDS011;40838;50.676;7.838;2022-09-17T02:57:28;21.20;;;11.25;;
54935;SDS011;40838;50.676;7.838;2022-09-17T02:59:57;21.90;;;11.00;;
54935;SDS011;40838;50.676;7.838;2022-09-17T03:02:30;18.95;;;11.02;;
54935;SDS011;40838;50.676;7.838;2022-09-17T03:05:01;24.20;;;10.82;;
54935;SDS011;40838;50.676;7.838;2022-09-17T03:07:29;20.35;;;10.07;;
54935;SDS011;40838;50.676;7.838;2022-09-17T03:09:56;13.52;;;9.43;;
54935;SDS011;40838;50.676;7.838;2022-09-17T03:12:23;10.90;;;8.05;;
54935;SDS011;40838;50.676;7.838;2022-09-17T03:14:51;13.88;;;8.07;;
54935;SDS011;40838;50.676;7.838;2022-09-17T03:17:17;10.32;;;7.45;;
54935;SDS011;40838;50.676;7.838;2022-09-17T03:19:44;15.50;;;7.40;;
54935;SDS011;40838;50.676;7.838;2022-09-17T03:22:12;13.55;;;7.13;;
54935;SDS011;40838;50.676;7.838;2022-09-17T03:24:39;13.30;;;8.15;;
54935;SDS011;40838;50.676;7.838;2022-09-17T03:27:06;22.58;;;11.40;;
54935;SDS011;40838;50.676;7.838;2022-09-17T03:29:33;21.38;;;7.20;;
54935;SDS011;40838;50.676;7.838;2022-09-17T03:32:01;16.23;;;6.60;;
54935;SDS011;40838;50.676;7.838;2022-09-17T03:34:31;17.00;;;6.75;;
54935;SDS011;40838;50.676;7.838;2022-09-17T03:36:57;14.70;;;6.38;;
54935;SDS011;40838;50.676;7.838;2022-09-17T03:39:25;21.23;;;8.00;;
54935;SDS011;40838;50.676;7.838;2022-09-17T03:41:52;17.58;;;8.02;;
54935;SDS011;40838;50.676;7.838;2022-09-17T03:44:19;18.50;;;9.38;;
54935;SDS011;40838;50.676;7.838;2022-09-17T03:46:48;13.55;;;9.60;;
54935;SDS011;40838;50.676;7.838;2022-09-17T03:49:16;20.30;;;11.25;;
54935;SDS011;40838;50.676;7.838;2022-09-17T03:51:44;24.35;;;11.05;;
54935;SDS011;40838;50.676;7.838;2022-09-17T03:54:11;26.33;;;12.45;;
54935;SDS011;40838;50.676;7.838;2022-09-17T03:56:39;22.23;;;12.05;;
54935;SDS011;40838;50.676;7.838;2022-09-17T03:59:07;27.15;;;12.55;;
54935;SDS011;40838;50.676;7.838;2022-09-17T04:01:34;33.95;;;14.43;;
54935;SDS011;40838;50.676;7.838;2022-09-17T04:04:01;29.67;;;13.23;;
54935;SDS011;40838;50.676;7.838;2022-09-17T04:06:28;22.95;;;14.60;;
54935;SDS011;40838;50.676;7.838;2022-09-17T04:11:45;37.53;;;17.05;;
54935;SDS011;40838;50.676;7.838;2022-09-17T04:14:21;43.92;;;18.17;;
54935;SDS011;40838;50.676;7.838;2022-09-17T04:16:48;40.63;;;18.30;;
54935;SDS011;40838;50.676;7.838;2022-09-17T04:19:15;39.70;;;16.30;;
54935;SDS011;40838;50.676;7.838;2022-09-17T04:21:43;30.08;;;16.40;;
54935;SDS011;40838;50.676;7.838;2022-09-17T04:24:13;32.47;;;16.05;;
54935;SDS011;40838;50.676;7.838;2022-09-17T04:26:40;33.15;;;17.73;;
54935;SDS011;40838;50.676;7.838;2022-09-17T04:29:09;35.78;;;18.17;;
54935;SDS011;40838;50.676;7.838;2022-09-17T04:31:37;33.90;;;16.77;;
54935;SDS011;40838;50.676;7.838;2022-09-17T04:34:05;32.22;;;16.90;;
54935;SDS011;40838;50.676;7.838;2022-09-17T04:36:32;33.83;;;16.48;;
54935;SDS011;40838;50.676;7.838;2022-09-17T04:39:02;39.75;;;16.80;;
54935;SDS011;40838;50.676;7.838;2022-09-17T04:41:33;30.13;;;16.02;;
54935;SDS011;40838;50.676;7.838;2022-09-17T04:44:00;41.47;;;16.45;;
54935;SDS011;40838;50.676;7.838;2022-09-17T04:46:29;39.60;;;16.80;;
54935;SDS011;40838;50.676;7.838;2022-09-17T04:48:56;39.53;;;16.90;;
54935;SDS011;40838;50.676;7.838;2022-09-17T04:51:23;42.20;;;16.23;;
54935;SDS011;40838;50.676;7.838;2022-09-17T04:53:53;36.70;;;16.77;;
54935;SDS011;40838;50.676;7.838;2022-09-17T04:56:20;41.28;;;16.60;;
54935;SDS011;40838;50.676;7.838;2022-09-17T04:59:02;32.17;;;14.75;;
54935;SDS011;40838;50.676;7.838;2022-09-17T05:01:36;37.42;;;15.85;;
54935;SDS011;40838;50.676;7.838;2022-09-17T05:04:05;34.80;;;15.63;;
54935;SDS011;40838;50.676;7.838;2022-09-17T05:06:33;28.90;;;14.70;;
54935;SDS011;40838;50.676;7.838;2022-09-17T05:09:01;32.35;;;15.60;;
54935;SDS011;40838;50.676;7.838;2022-09-17T05:11:29;33.00;;;15.57;;
54935;SDS011;40838;50.676;7.838;2022-09-17T05:13:56;33.58;;;15.80;;
54935;SDS011;40838;50.676;7.838;2022-09-17T05:16:23;32.38;;;15.27;;
54935;SDS011;40838;50.676;7.838;2022-09-17T05:18:52;38.67;;;16.08;;
54935;SDS011;40838;50.676;7.838;2022-09-17T05:21:19;39.13;;;17.55;;
54935;SDS011;40838;50.676;7.838;2022-09-17T05:23:47;35.80;;;15.35;;
54935;SDS011;40838;50.676;7.838;2022-09-17T05:26:15;36.50;;;16.13;;
54935;SDS011;40838;50.676;7.838;2022-09-17T05:28:42;27.25;;;14.73;;
54935;SDS011;40838;50.676;7.838;2022-09-17T05:31:09;32.75;;;15.70;;
54935;SDS011;40838;50.676;7.838;2022-09-17T05:33:36;29.58;;;14.27;;
54935;SDS011;40838;50.676;7.838;2022-09-17T05:36:07;31.27;;;15.57;;
54935;SDS011;40838;50.676;7.838;2022-09-17T05:38:34;33.65;;;14.55;;
54935;SDS011;40838;50.676;7.838;2022-09-17T05:41:04;40.58;;;14.60;;
54935;SDS011;40838;50.676;7.838;2022-09-17T05:43:31;37.63;;;15.60;;
54935;SDS011;40838;50.676;7.838;2022-09-17T05:45:59;34.03;;;13.48;;
54935;SDS011;40838;50.676;7.838;2022-09-17T05:48:26;33.40;;;14.00;;
54935;SDS011;40838;50.676;7.838;2022-09-17T05:50:53;27.77;;;13.93;;
54935;SDS011;40838;50.676;7.838;2022-09-17T05:53:22;26.15;;;13.75;;
54935;SDS011;40838;50.676;7.838;2022-09-17T05:55:49;28.83;;;12.63;;
54935;SDS011;40838;50.676;7.838;2022-09-17T05:58:17;27.65;;;14.07;;
54935;SDS011;40838;50.676;7.838;2022-09-17T06:00:45;38.78;;;14.98;;
54935;SDS011;40838;50.676;7.838;2022-09-17T06:03:13;34.35;;;13.73;;
54935;SDS011;40838;50.676;7.838;2022-09-17T06:05:40;26.10;;;13.38;;
54935;SDS011;40838;50.676;7.838;2022-09-17T06:08:08;32.20;;;14.18;;
54935;SDS011;40838;50.676;7.838;2022-09-17T06:10:36;29.60;;;13.32;;
54935;SDS011;40838;50.676;7.838;2022-09-17T06:13:04;31.85;;;13.15;;
54935;SDS011;40838;50.676;7.838;2022-09-17T06:15:31;32.38;;;12.18;;
54935;SDS011;40838;50.676;7.838;2022-09-17T06:17:57;27.52;;;12.65;;
54935;SDS011;40838;50.676;7.838;2022-09-17T06:20:24;29.38;;;12.25;;
54935;SDS011;40838;50.676;7.838;2022-09-17T06:22:54;27.85;;;12.07;;
54935;SDS011;40838;50.676;7.838;2022-09-17T06:25:22;19.95;;;10.35;;
54935;SDS011;40838;50.676;7.838;2022-09-17T06:27:50;18.48;;;10.07;;
54935;SDS011;40838;50.676;7.838;2022-09-17T06:30:17;16.67;;;9.65;;
54935;SDS011;40838;50.676;7.838;2022-09-17T06:32:44;16.67;;;8.60;;
54935;SDS011;40838;50.676;7.838;2022-09-17T06:35:10;23.23;;;9.77;;
54935;SDS011;40838;50.676;7.838;2022-09-17T06:37:37;22.92;;;8.70;;
54935;SDS011;40838;50.676;7.838;2022-09-17T06:40:08;20.25;;;9.05;;
54935;SDS011;40838;50.676;7.838;2022-09-17T06:42:34;23.45;;;9.75;;
54935;SDS011;40838;50.676;7.838;2022-09-17T06:45:03;19.85;;;9.68;;
54935;SDS011;40838;50.676;7.838;2022-09-17T06:47:30;37.30;;;9.93;;
54935;SDS011;40838;50.676;7.838;2022-09-17T06:49:56;20.92;;;9.10;;
54935;SDS011;40838;50.676;7.838;2022-09-17T06:52:24;23.75;;;9.38;;
54935;SDS011;40838;50.676;7.838;2022-09-17T06:54:51;20.55;;;9.20;;
54935;SDS011;40838;50.676;7.838;2022-09-17T06:57:18;19.23;;;7.43;;
54935;SDS011;40838;50.676;7.838;2022-09-17T06:59:44;16.00;;;7.93;;
54935;SDS011;40838;50.676;7.838;2022-09-17T07:02:12;14.77;;;7.28;;
54935;SDS011;40838;50.676;7.838;2022-09-17T07:04:39;13.90;;;7.32;;
54935;SDS011;40838;50.676;7.838;2022-09-17T07:07:06;15.57;;;6.95;;
54935;SDS011;40838;50.676;7.838;2022-09-17T07:09:34;20.48;;;7.95;;
54935;SDS011;40838;50.676;7.838;2022-09-17T07:12:00;16.98;;;7.53;;
54935;SDS011;40838;50.676;7.838;2022-09-17T07:14:27;30.15;;;8.80;;
54935;SDS011;40838;50.676;7.838;2022-09-17T07:16:53;22.17;;;7.80;;
54935;SDS011;40838;50.676;7.838;2022-09-17T07:19:21;12.82;;;7.75;;
54935;SDS011;40838;50.676;7.838;2022-09-17T07:21:48;16.90;;;7.28;;
54935;SDS011;40838;50.676;7.838;2022-09-17T07:24:15;19.50;;;7.75;;
54935;SDS011;40838;50.676;7.838;2022-09-17T07:26:41;19.23;;;7.80;;
54935;SDS011;40838;50.676;7.838;2022-09-17T07:29:08;40.45;;;7.75;;
54935;SDS011;40838;50.676;7.838;2022-09-17T07:31:35;19.45;;;7.30;;
54935;SDS011;40838;50.676;7.838;2022-09-17T07:34:02;18.15;;;7.00;;
54935;SDS011;40838;50.676;7.838;2022-09-17T07:36:30;16.67;;;7.03;;
54935;SDS011;40838;50.676;7.838;2022-09-17T07:38:56;21.17;;;6.45;;
54935;SDS011;40838;50.676;7.838;2022-09-17T07:41:23;28.80;;;6.93;;
54935;SDS011;40838;50.676;7.838;2022-09-17T07:43:51;18.73;;;5.82;;
54935;SDS011;40838;50.676;7.838;2022-09-17T07:46:18;16.52;;;5.88;;
54935;SDS011;40838;50.676;7.838;2022-09-17T07:48:45;13.60;;;5.97;;
54935;SDS011;40838;50.676;7.838;2022-09-17T07:51:15;12.73;;;5.20;;
54935;SDS011;40838;50.676;7.838;2022-09-17T07:53:44;16.50;;;5.65;;
54935;SDS011;40838;50.676;7.838;2022-09-17T07:56:11;13.13;;;5.25;;
54935;SDS011;40838;50.676;7.838;2022-09-17T07:58:38;14.70;;;4.95;;
54935;SDS011;40838;50.676;7.838;2022-09-17T08:04:33;18.73;;;6.88;;
54935;SDS011;40838;50.676;7.838;2022-09-17T08:07:00;14.93;;;6.00;;
54935;SDS011;40838;50.676;7.838;2022-09-17T08:09:27;12.85;;;5.95;;
54935;SDS011;40838;50.676;7.838;2022-09-17T08:11:54;12.95;;;6.15;;
54935;SDS011;40838;50.676;7.838;2022-09-17T08:14:23;20.08;;;6.03;;
54935;SDS011;40838;50.676;7.838;2022-09-17T08:16:50;18.95;;;5.45;;
54935;SDS011;40838;50.676;7.838;2022-09-17T08:19:16;16.88;;;5.03;;
54935;SDS011;40838;50.676;7.838;2022-09-17T08:21:43;15.35;;;5.25;;
54935;SDS011;40838;50.676;7.838;2022-09-17T08:24:10;11.90;;;4.90;;
54935;SDS011;40838;50.676;7.838;2022-09-17T08:26:38;15.50;;;4.13;;
54935;SDS011;40838;50.676;7.838;2022-09-17T08:29:05;16.52;;;4.65;;
54935;SDS011;40838;50.676;7.838;2022-09-17T08:31:32;14.23;;;4.25;;
54935;SDS011;40838;50.676;7.838;2022-09-17T08:33:59;12.35;;;4.10;;
54935;SDS011;40838;50.676;7.838;2022-09-17T08:36:26;10.55;;;4.65;;
54935;SDS011;40838;50.676;7.838;2022-09-17T08:38:53;14.02;;;4.82;;
54935;SDS011;40838;50.676;7.838;2022-09-17T08:41:22;17.52;;;4.80;;
54935;SDS011;40838;50.676;7.838;2022-09-17T08:43:51;14.38;;;4.85;;
54935;SDS011;40838;50.676;7.838;2022-09-17T08:46:22;12.77;;;4.57;;
54935;SDS011;40838;50.676;7.838;2022-09-17T08:48:50;13.20;;;5.28;;
54935;SDS011;40838;50.676;7.838;2022-09-17T08:51:22;16.98;;;5.93;;
54935;SDS011;40838;50.676;7.838;2022-09-17T08:53:54;18.38;;;5.35;;
54935;SDS011;40838;50.676;7.838;2022-09-17T08:56:23;16.35;;;4.57;;
54935;SDS011;40838;50.676;7.838;2022-09-17T08:59:00;13.60;;;4.15;;
54935;SDS011;40838;50.676;7.838;2022-09-17T09:01:33;14.00;;;4.03;;
54935;SDS011;40838;50.676;7.838;2022-09-17T09:04:18;13.65;;;3.38;;
54935;SDS011;40838;50.676;7.838;2022-09-17T09:06:49;11.15;;;2.42;;
54935;SDS011;40838;50.676;7.838;2022-09-17T09:09:18;12.38;;;2.78;;
54935;SDS011;40838;50.676;7.838;2022-09-17T09:11:46;12.40;;;2.17;;
54935;SDS011;40838;50.676;7.838;2022-09-17T09:14:17;13.50;;;2.10;;
54935;SDS011;40838;50.676;7.838;2022-09-17T09:16:46;13.82;;;2.30;;
54935;SDS011;40838;50.676;7.838;2022-09-17T09:19:16;12.27;;;2.60;;
54935;SDS011;40838;50.676;7.838;2022-09-17T09:21:47;14.68;;;2.47;;
54935;SDS011;40838;50.676;7.838;2022-09-17T09:24:19;9.38;;;1.98;;
54935;SDS011;40838;50.676;7.838;2022-09-17T09:26:48;16.75;;;2.85;;
54935;SDS011;40838;50.676;7.838;2022-09-17T09:29:20;9.38;;;2.33;;
54935;SDS011;40838;50.676;7.838;2022-09-17T09:31:56;13.55;;;3.05;;
54935;SDS011;40838;50.676;7.838;2022-09-17T09:34:26;7.45;;;2.83;;
54935;SDS011;40838;50.676;7.838;2022-09-17T09:36:54;12.35;;;2.58;;
54935;SDS011;40838;50.676;7.838;2022-09-17T09:39:26;13.68;;;2.60;;
54935;SDS011;40838;50.676;7.838;2022-09-17T09:42:00;5.78;;;2.47;;
54935;SDS011;40838;50.676;7.838;2022-09-17T09:44:31;11.18;;;2.90;;
54935;SDS011;40838;50.676;7.838;2022-09-17T09:47:03;12.13;;;2.00;;
54935;SDS011;40838;50.676;7.838;2022-09-17T09:49:36;9.27;;;2.58;;
54935;SDS011;40838;50.676;7.838;2022-09-17T09:52:09;9.05;;;1.92;;
54935;SDS011;40838;50.676;7.838;2022-09-17T09:54:45;5.35;;;1.70;;
54935;SDS011;40838;50.676;7.838;2022-09-17T09:57:16;9.23;;;2.30;;
54935;SDS011;40838;50.676;7.838;2022-09-17T09:59:44;8.10;;;2.05;;
54935;SDS011;40838;50.676;7.838;2022-09-17T10:02:11;9.18;;;2.45;;
54935;SDS011;40838;50.676;7.838;2022-09-17T10:04:39;7.57;;;1.58;;
54935;SDS011;40838;50.676;7.838;2022-09-17T10:07:07;11.13;;;1.92;;
54935;SDS011;40838;50.676;7.838;2022-09-17T10:09:35;7.95;;;1.95;;
54935;SDS011;40838;50.676;7.838;2022-09-17T10:12:04;7.60;;;2.08;;
54935;SDS011;40838;50.676;7.838;2022-09-17T10:14:31;7.72;;;2.00;;
54935;SDS011;40838;50.676;7.838;2022-09-17T10:17:10;7.93;;;1.38;;
54935;SDS011;40838;50.676;7.838;2022-09-17T10:19:38;11.60;;;1.80;;
54935;SDS011;40838;50.676;7.838;2022-09-17T10:22:16;7.57;;;1.85;;
54935;SDS011;40838;50.676;7.838;2022-09-17T10:24:44;10.32;;;2.35;;
54935;SDS011;40838;50.676;7.838;2022-09-17T10:27:12;4.80;;;1.67;;
54935;SDS011;40838;50.676;7.838;2022-09-17T10:29:41;7.97;;;1.88;;
54935;SDS011;40838;50.676;7.838;2022-09-17T10:32:13;5.05;;;1.92;;
54935;SDS011;40838;50.676;7.838;2022-09-17T10:34:40;4.13;;;2.00;;
54935;SDS011;40838;50.676;7.838;2022-09-17T10:37:13;8.90;;;1.92;;
54935;SDS011;40838;50.676;7.838;2022-09-17T10:39:56;9.18;;;2.05;;
54935;SDS011;40838;50.676;7.838;2022-09-17T10:42:23;4.88;;;1.35;;
54935;SDS011;40838;50.676;7.838;2022-09-17T10:44:50;7.20;;;1.65;;
54935;SDS011;40838;50.676;7.838;2022-09-17T10:47:20;6.47;;;1.23;;
54935;SDS011;40838;50.676;7.838;2022-09-17T10:49:48;4.80;;;1.30;;
54935;SDS011;40838;50.676;7.838;2022-09-17T10:52:20;5.53;;;1.98;;
54935;SDS011;40838;50.676;7.838;2022-09-17T10:55:04;7.10;;;1.77;;
54935;SDS011;40838;50.676;7.838;2022-09-17T10:57:37;5.22;;;1.98;;
54935;SDS011;40838;50.676;7.838;2022-09-17T11:00:08;8.20;;;1.10;;
54935;SDS011;40838;50.676;7.838;2022-09-17T11:05:36;7.20;;;1.15;;
54935;SDS011;40838;50.676;7.838;2022-09-17T11:08:07;10.13;;;1.60;;
54935;SDS011;40838;50.676;7.838;2022-09-17T11:10:35;8.02;;;1.25;;
54935;SDS011;40838;50.676;7.838;2022-09-17T11:13:09;5.85;;;1.30;;
54935;SDS011;40838;50.676;7.838;2022-09-17T11:15:44;6.60;;;1.38;;
54935;SDS011;40838;50.676;7.838;2022-09-17T11:18:31;6.55;;;1.13;;
54935;SDS011;40838;50.676;7.838;2022-09-17T11:24:10;2.88;;;1.20;;
54935;SDS011;40838;50.676;7.838;2022-09-17T11:26:42;7.18;;;1.65;;
54935;SDS011;40838;50.676;7.838;2022-09-17T11:29:18;6.60;;;1.33;;
54935;SDS011;40838;50.676;7.838;2022-09-17T11:31:52;4.72;;;1.25;;
54935;SDS011;40838;50.676;7.838;2022-09-17T11:34:25;5.22;;;1.27;;
54935;SDS011;40838;50.676;7.838;2022-09-17T11:36:56;9.23;;;1.10;;
54935;SDS011;40838;50.676;7.838;2022-09-17T11:39:26;3.40;;;1.00;;
54935;SDS011;40838;50.676;7.838;2022-09-17T11:41:56;6.65;;;1.45;;
54935;SDS011;40838;50.676;7.838;2022-09-17T11:44:25;7.40;;;2.25;;
54935;SDS011;40838;50.676;7.838;2022-09-17T11:46:54;7.72;;;1.27;;
54935;SDS011;40838;50.676;7.838;2022-09-17T11:49:24;4.53;;;1.25;;
54935;SDS011;40838;50.676;7.838;2022-09-17T11:51:53;4.15;;;1.23;;
54935;SDS011;40838;50.676;7.838;2022-09-17T11:54:22;4.85;;;1.33;;
54935;SDS011;40838;50.676;7.838;2022-09-17T11:56:52;3.00;;;0.95;;
54935;SDS011;40838;50.676;7.838;2022-09-17T11:59:21;4.28;;;0.63;;
54935;SDS011;40838;50.676;7.838;2022-09-17T12:01:51;7.03;;;0.93;;
54935;SDS011;40838;50.676;7.838;2022-09-17T12:04:26;8.10;;;1.52;;
54935;SDS011;40838;50.676;7.838;2022-09-17T12:06:55;4.30;;;1.23;;
54935;SDS011;40838;50.676;7.838;2022-09-17T12:09:24;8.93;;;1.20;;
54935;SDS011;40838;50.676;7.838;2022-09-17T12:11:54;4.07;;;1.52;;
54935;SDS011;40838;50.676;7.838;2022-09-17T12:14:25;4.22;;;1.30;;
54935;SDS011;40838;50.676;7.838;2022-09-17T12:17:03;5.60;;;1.20;;
54935;SDS011;40838;50.676;7.838;2022-09-17T12:19:33;5.63;;;1.10;;
54935;SDS011;40838;50.676;7.838;2022-09-17T12:22:03;3.30;;;0.80;;
54935;SDS011;40838;50.676;7.838;2022-09-17T12:24:32;5.50;;;1.00;;
54935;SDS011;40838;50.676;7.838;2022-09-17T12:27:03;6.55;;;1.05;;
54935;SDS011;40838;50.676;7.838;2022-09-17T12:29:37;5.30;;;1.20;;
54935;SDS011;40838;50.676;7.838;2022-09-17T12:32:11;3.42;;;1.00;;
54935;SDS011;40838;50.676;7.838;2022-09-17T12:34:44;11.48;;;1.40;;
54935;SDS011;40838;50.676;7.838;2022-09-17T12:37:16;3.17;;;1.38;;
54935;SDS011;40838;50.676;7.838;2022-09-17T12:40:02;7.72;;;1.42;;
54935;SDS011;40838;50.676;7.838;2022-09-17T12:42:35;5.13;;;1.20;;
54935;SDS011;40838;50.676;7.838;2022-09-17T12:45:07;4.75;;;1.00;;
54935;SDS011;40838;50.676;7.838;2022-09-17T12:47:56;5.15;;;1.05;;
54935;SDS011;40838;50.676;7.838;2022-09-17T12:50:40;4.45;;;1.20;;
54935;SDS011;40838;50.676;7.838;2022-09-17T12:53:14;4.22;;;0.80;;
54935;SDS011;40838;50.676;7.838;2022-09-17T12:56:08;7.85;;;1.88;;
54935;SDS011;40838;50.676;7.838;2022-09-17T13:01:25;8.60;;;1.73;;
54935;SDS011;40838;50.676;7.838;2022-09-17T13:03:54;5.43;;;1.35;;
54935;SDS011;40838;50.676;7.838;2022-09-17T13:12:03;1.75;;;0.77;;
54935;SDS011;40838;50.676;7.838;2022-09-17T13:14:35;2.45;;;0.55;;
54935;SDS011;40838;50.676;7.838;2022-09-17T13:17:09;2.10;;;0.60;;
54935;SDS011;40838;50.676;7.838;2022-09-17T13:19:38;4.32;;;2.45;;
54935;SDS011;40838;50.676;7.838;2022-09-17T13:22:08;7.57;;;2.40;;
54935;SDS011;40838;50.676;7.838;2022-09-17T13:24:38;3.17;;;0.80;;
54935;SDS011;40838;50.676;7.838;2022-09-17T13:27:04;1.92;;;0.57;;
54935;SDS011;40838;50.676;7.838;2022-09-17T13:35:04;1.33;;;0.40;;
54935;SDS011;40838;50.676;7.838;2022-09-17T13:37:53;4.97;;;0.60;;
54935;SDS011;40838;50.676;7.838;2022-09-17T13:40:21;2.92;;;1.02;;
54935;SDS011;40838;50.676;7.838;2022-09-17T13:42:50;2.75;;;0.70;;
54935;SDS011;40838;50.676;7.838;2022-09-17T13:45:20;2.55;;;0.50;;
54935;SDS011;40838;50.676;7.838;2022-09-17T13:47:47;3.38;;;0.52;;
54935;SDS011;40838;50.676;7.838;2022-09-17T13:50:25;2.80;;;0.43;;
54935;SDS011;40838;50.676;7.838;2022-09-17T13:52:52;2.60;;;0.77;;
54935;SDS011;40838;50.676;7.838;2022-09-17T13:55:29;2.58;;;0.95;;
54935;SDS011;40838;50.676;7.838;2022-09-17T13:57:58;3.13;;;0.98;;
54935;SDS011;40838;50.676;7.838;2022-09-17T14:06:41;2.20;;;0.60;;
54935;SDS011;40838;50.676;7.838;2022-09-17T14:08:49;1.38;;;0.43;;
54935;SDS011;40838;50.676;7.838;2022-09-17T14:11:35;2.05;;;0.60;;
54935;SDS011;40838;50.676;7.838;2022-09-17T14:16:57;2.15;;;0.85;;
54935;SDS011;40838;50.676;7.838;2022-09-17T14:19:31;3.78;;;0.60;;
54935;SDS011;40838;50.676;7.838;2022-09-17T14:22:10;6.70;;;0.98;;
54935;SDS011;40838;50.676;7.838;2022-09-17T14:24:39;4.25;;;1.67;;
54935;SDS011;40838;50.676;7.838;2022-09-17T14:27:12;4.13;;;1.35;;
54935;SDS011;40838;50.676;7.838;2022-09-17T14:34:54;2.30;;;0.88;;
54935;SDS011;40838;50.676;7.838;2022-09-17T14:37:23;3.20;;;1.10;;
54935;SDS011;40838;50.676;7.838;2022-09-17T14:39:49;3.20;;;0.90;;
54935;SDS011;40838;50.676;7.838;2022-09-17T14:42:17;7.97;;;2.92;;
54935;SDS011;40838;50.676;7.838;2022-09-17T14:44:51;2.30;;;0.50;;
54935;SDS011;40838;50.676;7.838;2022-09-17T14:47:20;7.22;;;1.33;;
54935;SDS011;40838;50.676;7.838;2022-09-17T14:49:47;1.77;;;0.70;;
54935;SDS011;40838;50.676;7.838;2022-09-17T14:52:27;7.55;;;1.40;;
54935;SDS011;40838;50.676;7.838;2022-09-17T14:55:13;3.13;;;0.77;;
54935;SDS011;40838;50.676;7.838;2022-09-17T14:57:41;3.15;;;1.00;;
54935;SDS011;40838;50.676;7.838;2022-09-17T15:00:14;5.40;;;2.17;;
54935;SDS011;40838;50.676;7.838;2022-09-17T15:02:43;3.45;;;1.30;;
54935;SDS011;40838;50.676;7.838;2022-09-17T15:05:14;1.73;;;0.50;;
54935;SDS011;40838;50.676;7.838;2022-09-17T15:07:43;3.63;;;0.80;;
54935;SDS011;40838;50.676;7.838;2022-09-17T15:10:12;1.52;;;0.50;;
54935;SDS011;40838;50.676;7.838;2022-09-17T15:12:39;3.72;;;0.40;;
54935;SDS011;40838;50.676;7.838;2022-09-17T15:15:08;3.78;;;0.38;;
54935;SDS011;40838;50.676;7.838;2022-09-17T15:17:37;0.95;;;0.47;;
54935;SDS011;40838;50.676;7.838;2022-09-17T15:20:03;1.45;;;0.45;;
54935;SDS011;40838;50.676;7.838;2022-09-17T15:22:33;2.63;;;0.63;;
54935;SDS011;40838;50.676;7.838;2022-09-17T15:25:03;4.07;;;0.65;;
54935;SDS011;40838;50.676;7.838;2022-09-17T15:27:33;3.42;;;0.50;;
54935;SDS011;40838;50.676;7.838;2022-09-17T15:30:02;1.58;;;0.60;;
54935;SDS011;40838;50.676;7.838;2022-09-17T15:32:30;2.50;;;0.40;;
54935;SDS011;40838;50.676;7.838;2022-09-17T15:35:16;3.95;;;0.70;;
54935;SDS011;40838;50.676;7.838;2022-09-17T15:37:43;4.00;;;0.70;;
54935;SDS011;40838;50.676;7.838;2022-09-17T15:40:12;4.10;;;0.77;;